createdAt,value
2018-08-24T00:00:08.613Z,183
2018-08-24T00:00:21.098Z,183
2018-08-24T00:00:33.554Z,183
2018-08-24T00:00:46.011Z,183
2018-08-24T00:00:58.467Z,183
2018-08-24T00:01:10.904Z,183
2018-08-24T00:01:23.350Z,183
2018-08-24T00:01:35.780Z,183
2018-08-24T00:01:48.215Z,183
2018-08-24T00:02:00.617Z,183
2018-08-24T00:02:13.021Z,183
2018-08-24T00:02:25.427Z,183
2018-08-24T00:02:37.836Z,183
2018-08-24T00:02:50.386Z,183
2018-08-24T00:03:02.790Z,183
2018-08-24T00:03:15.184Z,183
2018-08-24T00:03:27.618Z,183
2018-08-24T00:03:40.028Z,183
2018-08-24T00:03:52.433Z,183
2018-08-24T00:04:04.861Z,183
2018-08-24T00:04:17.259Z,183
2018-08-24T00:04:29.736Z,183
2018-08-24T00:04:42.205Z,183
2018-08-24T00:04:54.625Z,183
2018-08-24T00:05:07.105Z,183
2018-08-24T00:05:19.497Z,183
2018-08-24T00:05:31.990Z,183
2018-08-24T00:05:44.431Z,183
2018-08-24T00:05:56.838Z,183
2018-08-24T00:06:09.240Z,183
2018-08-24T00:06:21.675Z,183
2018-08-24T00:06:34.078Z,183
2018-08-24T00:06:46.496Z,183
2018-08-24T00:06:58.927Z,183
2018-08-24T00:07:11.463Z,183
2018-08-24T00:07:24.760Z,183
2018-08-24T00:07:37.889Z,183
2018-08-24T00:07:50.300Z,183
2018-08-24T00:08:02.744Z,183
2018-08-24T00:08:15.359Z,183
2018-08-24T00:08:27.769Z,183
2018-08-24T00:08:40.172Z,183
2018-08-24T00:08:52.608Z,183
2018-08-24T00:09:05.184Z,183
2018-08-24T00:09:17.600Z,183
2018-08-24T00:09:30.085Z,183
2018-08-24T00:09:42.532Z,183
2018-08-24T00:09:55.035Z,183
2018-08-24T00:10:07.476Z,183
2018-08-24T00:10:19.926Z,183
2018-08-24T00:10:32.668Z,183
2018-08-24T00:10:45.125Z,183
2018-08-24T00:10:57.538Z,183
2018-08-24T00:11:10.026Z,183
2018-08-24T00:11:22.467Z,183
2018-08-24T00:11:34.896Z,183
2018-08-24T00:11:47.311Z,183
2018-08-24T00:11:59.747Z,183
2018-08-24T00:12:12.171Z,183
2018-08-24T00:12:24.586Z,183
2018-08-24T00:12:37.009Z,183
2018-08-24T00:12:49.428Z,183
2018-08-24T00:13:01.875Z,183
2018-08-24T00:13:14.304Z,183
2018-08-24T00:13:26.737Z,183
2018-08-24T00:13:39.153Z,183
2018-08-24T00:13:51.591Z,183
2018-08-24T00:14:04.039Z,183
2018-08-24T00:14:16.461Z,183
2018-08-24T00:14:28.890Z,183
2018-08-24T00:14:41.308Z,183
2018-08-24T00:14:53.744Z,183
2018-08-24T00:15:06.174Z,183
2018-08-24T00:15:18.599Z,183
2018-08-24T00:15:31.065Z,183
2018-08-24T00:15:43.503Z,183
2018-08-24T00:15:55.913Z,183
2018-08-24T00:16:08.333Z,183
2018-08-24T00:16:20.747Z,183
2018-08-24T00:16:33.143Z,183
2018-08-24T00:16:45.541Z,183
2018-08-24T00:16:58.023Z,183
2018-08-24T00:17:10.422Z,183
2018-08-24T00:17:22.838Z,183
2018-08-24T00:17:35.467Z,183
2018-08-24T00:17:47.923Z,183
2018-08-24T00:18:00.340Z,183
2018-08-24T00:18:12.744Z,183
2018-08-24T00:18:25.175Z,183
2018-08-24T00:18:37.785Z,183
2018-08-24T00:18:50.211Z,183
2018-08-24T00:19:02.637Z,183
2018-08-24T00:19:15.061Z,183
2018-08-24T00:19:27.480Z,183
2018-08-24T00:19:39.959Z,183
2018-08-24T00:19:52.368Z,183
2018-08-24T00:20:04.799Z,183
2018-08-24T00:20:17.205Z,183
2018-08-24T00:20:29.612Z,183
2018-08-24T00:20:42.027Z,183
2018-08-24T00:20:54.450Z,183
2018-08-24T00:21:06.944Z,183
2018-08-24T00:21:19.384Z,183
2018-08-24T00:21:31.797Z,183
2018-08-24T00:21:44.245Z,183
2018-08-24T00:21:56.643Z,183
2018-08-24T00:22:09.104Z,183
2018-08-24T00:22:21.515Z,183
2018-08-24T00:22:34.065Z,183
2018-08-24T00:22:46.475Z,183
2018-08-24T00:22:58.893Z,183
2018-08-24T00:23:11.302Z,183
2018-08-24T00:23:23.724Z,183
2018-08-24T00:23:36.148Z,183
2018-08-24T00:23:48.572Z,183
2018-08-24T00:24:00.957Z,183
2018-08-24T00:24:13.370Z,183
2018-08-24T00:24:25.791Z,183
2018-08-24T00:24:38.206Z,183
2018-08-24T00:24:50.659Z,183
2018-08-24T00:25:03.075Z,183
2018-08-24T00:25:15.487Z,183
2018-08-24T00:25:27.913Z,183
2018-08-24T00:25:40.358Z,183
2018-08-24T00:25:52.768Z,183
2018-08-24T00:26:05.179Z,183
2018-08-24T00:26:17.576Z,183
2018-08-24T00:26:30.006Z,183
2018-08-24T00:26:42.422Z,183
2018-08-24T00:26:54.978Z,183
2018-08-24T00:27:07.395Z,183
2018-08-24T00:27:19.834Z,183
2018-08-24T00:27:32.264Z,183
2018-08-24T00:27:44.726Z,183
2018-08-24T00:27:57.305Z,183
2018-08-24T00:28:09.702Z,183
2018-08-24T00:28:22.112Z,183
2018-08-24T00:28:34.523Z,183
2018-08-24T00:28:46.907Z,183
2018-08-24T00:28:59.309Z,183
2018-08-24T00:29:11.714Z,183
2018-08-24T00:29:24.103Z,183
2018-08-24T00:29:36.532Z,183
2018-08-24T00:29:48.941Z,183
2018-08-24T00:30:01.358Z,183
2018-08-24T00:30:13.785Z,183
2018-08-24T00:30:26.193Z,183
2018-08-24T00:30:38.605Z,183
2018-08-24T00:30:51.015Z,183
2018-08-24T00:31:03.420Z,183
2018-08-24T00:31:15.838Z,183
2018-08-24T00:31:28.236Z,183
2018-08-24T00:31:41.117Z,183
2018-08-24T00:31:55.055Z,183
2018-08-24T00:32:07.478Z,183
2018-08-24T00:32:19.917Z,183
2018-08-24T00:32:32.329Z,183
2018-08-24T00:32:44.875Z,183
2018-08-24T00:32:57.287Z,183
2018-08-24T00:33:09.734Z,183
2018-08-24T00:33:22.129Z,183
2018-08-24T00:33:34.514Z,183
2018-08-24T00:33:46.926Z,183
2018-08-24T00:33:59.441Z,183
2018-08-24T00:34:11.854Z,183
2018-08-24T00:34:24.273Z,183
2018-08-24T00:34:36.674Z,183
2018-08-24T00:34:49.093Z,183
2018-08-24T00:35:01.503Z,183
2018-08-24T00:35:13.969Z,183
2018-08-24T00:35:26.401Z,183
2018-08-24T00:35:38.803Z,183
2018-08-24T00:35:51.193Z,183
2018-08-24T00:36:03.603Z,183
2018-08-24T00:36:16.010Z,183
2018-08-24T00:36:28.426Z,183
2018-08-24T00:36:40.864Z,183
2018-08-24T00:36:53.520Z,183
2018-08-24T00:37:05.939Z,183
2018-08-24T00:37:18.350Z,183
2018-08-24T00:37:30.752Z,183
2018-08-24T00:37:43.181Z,183
2018-08-24T00:37:55.838Z,183
2018-08-24T00:38:08.240Z,183
2018-08-24T00:38:20.708Z,183
2018-08-24T00:38:33.130Z,183
2018-08-24T00:38:45.537Z,183
2018-08-24T00:38:57.969Z,183
2018-08-24T00:39:10.454Z,183
2018-08-24T00:39:22.848Z,183
2018-08-24T00:39:35.257Z,183
2018-08-24T00:39:47.733Z,183
2018-08-24T00:40:00.306Z,183
2018-08-24T00:40:12.764Z,183
2018-08-24T00:40:25.376Z,183
2018-08-24T00:40:37.779Z,183
2018-08-24T00:40:50.165Z,183
2018-08-24T00:41:02.569Z,183
2018-08-24T00:41:14.965Z,183
2018-08-24T00:41:27.631Z,183
2018-08-24T00:41:40.032Z,183
2018-08-24T00:41:52.438Z,183
2018-08-24T00:42:04.915Z,183
2018-08-24T00:42:17.320Z,183
2018-08-24T00:42:29.747Z,183
2018-08-24T00:42:42.751Z,183
2018-08-24T00:42:56.087Z,183
2018-08-24T00:43:08.494Z,183
2018-08-24T00:43:20.895Z,183
2018-08-24T00:43:33.310Z,183
2018-08-24T00:43:45.763Z,183
2018-08-24T00:43:58.167Z,183
2018-08-24T00:44:10.575Z,183
2018-08-24T00:44:22.991Z,183
2018-08-24T00:44:35.390Z,183
2018-08-24T00:44:47.821Z,183
2018-08-24T00:45:00.233Z,183
2018-08-24T00:45:12.674Z,183
2018-08-24T00:45:25.084Z,183
2018-08-24T00:45:37.501Z,183
2018-08-24T00:45:49.897Z,183
2018-08-24T00:46:02.305Z,183
2018-08-24T00:46:14.891Z,183
2018-08-24T00:46:27.281Z,183
2018-08-24T00:46:39.684Z,183
2018-08-24T00:46:52.082Z,183
2018-08-24T00:47:04.727Z,183
2018-08-24T00:47:17.439Z,183
2018-08-24T00:47:29.864Z,183
2018-08-24T00:47:42.272Z,183
2018-08-24T00:47:54.692Z,183
2018-08-24T00:48:07.100Z,183
2018-08-24T00:48:19.517Z,183
2018-08-24T00:48:31.924Z,183
2018-08-24T00:48:44.311Z,183
2018-08-24T00:48:56.731Z,183
2018-08-24T00:49:09.282Z,183
2018-08-24T00:49:21.701Z,183
2018-08-24T00:49:34.134Z,183
2018-08-24T00:49:46.579Z,183
2018-08-24T00:49:58.995Z,183
2018-08-24T00:50:11.448Z,183
2018-08-24T00:50:23.891Z,183
2018-08-24T00:50:36.318Z,183
2018-08-24T00:50:48.721Z,183
2018-08-24T00:51:01.124Z,183
2018-08-24T00:51:13.529Z,183
2018-08-24T00:51:25.934Z,183
2018-08-24T00:51:38.391Z,183
2018-08-24T00:51:50.813Z,183
2018-08-24T00:52:03.380Z,183
2018-08-24T00:52:15.935Z,183
2018-08-24T00:52:28.341Z,183
2018-08-24T00:52:40.742Z,183
2018-08-24T00:52:53.165Z,183
2018-08-24T00:53:05.563Z,183
2018-08-24T00:53:17.980Z,183
2018-08-24T00:53:30.395Z,183
2018-08-24T00:53:42.795Z,183
2018-08-24T00:53:55.214Z,183
2018-08-24T00:54:07.671Z,183
2018-08-24T00:54:20.144Z,183
2018-08-24T00:54:32.541Z,183
2018-08-24T00:54:44.997Z,183
2018-08-24T00:54:57.448Z,183
2018-08-24T00:55:09.887Z,183
2018-08-24T00:55:22.478Z,183
2018-08-24T00:55:35.016Z,183
2018-08-24T00:55:47.453Z,183
2018-08-24T00:55:59.866Z,183
2018-08-24T00:56:12.362Z,183
2018-08-24T00:56:24.784Z,183
2018-08-24T00:56:37.204Z,183
2018-08-24T00:56:49.604Z,183
2018-08-24T00:57:01.996Z,183
2018-08-24T00:57:14.476Z,183
2018-08-24T00:57:26.893Z,183
2018-08-24T00:57:39.304Z,183
2018-08-24T00:57:51.709Z,183
2018-08-24T00:58:04.141Z,183
2018-08-24T00:58:16.585Z,183
2018-08-24T00:58:29.002Z,183
2018-08-24T00:58:41.434Z,183
2018-08-24T00:58:53.844Z,183
2018-08-24T00:59:06.257Z,183
2018-08-24T00:59:18.655Z,183
2018-08-24T00:59:31.069Z,183
2018-08-24T00:59:43.479Z,183
2018-08-24T00:59:55.904Z,183
2018-08-24T01:00:08.318Z,183
2018-08-24T01:00:20.759Z,183
2018-08-24T01:00:33.185Z,183
2018-08-24T01:00:45.599Z,183
2018-08-24T01:00:58.013Z,183
2018-08-24T01:01:10.423Z,183
2018-08-24T01:01:22.855Z,183
2018-08-24T01:01:35.267Z,183
2018-08-24T01:01:47.698Z,183
2018-08-24T01:02:00.115Z,183
2018-08-24T01:02:12.641Z,183
2018-08-24T01:02:25.065Z,183
2018-08-24T01:02:37.496Z,183
2018-08-24T01:02:50.123Z,183
2018-08-24T01:03:02.550Z,183
2018-08-24T01:03:15.005Z,183
2018-08-24T01:03:27.421Z,183
2018-08-24T01:03:39.856Z,183
2018-08-24T01:03:52.288Z,183
2018-08-24T01:04:04.711Z,183
2018-08-24T01:04:17.126Z,183
2018-08-24T01:04:29.547Z,183
2018-08-24T01:04:41.974Z,183
2018-08-24T01:04:54.422Z,183
2018-08-24T01:05:06.837Z,183
2018-08-24T01:05:19.268Z,183
2018-08-24T01:05:31.851Z,183
2018-08-24T01:05:44.283Z,183
2018-08-24T01:05:56.703Z,183
2018-08-24T01:06:09.126Z,182
2018-08-24T01:06:21.579Z,182
2018-08-24T01:06:34.000Z,182
2018-08-24T01:06:46.610Z,182
2018-08-24T01:06:59.034Z,182
2018-08-24T01:07:11.430Z,182
2018-08-24T01:07:23.915Z,182
2018-08-24T01:07:37.049Z,182
2018-08-24T01:07:49.987Z,182
2018-08-24T01:08:02.441Z,182
2018-08-24T01:08:14.985Z,182
2018-08-24T01:08:27.427Z,182
2018-08-24T01:08:39.854Z,182
2018-08-24T01:08:52.268Z,182
2018-08-24T01:09:04.666Z,182
2018-08-24T01:09:17.077Z,182
2018-08-24T01:09:29.520Z,182
2018-08-24T01:09:42.151Z,182
2018-08-24T01:09:54.583Z,182
2018-08-24T01:10:07.021Z,182
2018-08-24T01:10:19.446Z,182
2018-08-24T01:10:32.110Z,182
2018-08-24T01:10:44.526Z,182
2018-08-24T01:10:56.933Z,182
2018-08-24T01:11:09.336Z,182
2018-08-24T01:11:21.777Z,182
2018-08-24T01:11:34.203Z,182
2018-08-24T01:11:46.638Z,182
2018-08-24T01:11:59.032Z,182
2018-08-24T01:12:11.458Z,182
2018-08-24T01:12:23.959Z,182
2018-08-24T01:12:36.376Z,182
2018-08-24T01:12:48.792Z,182
2018-08-24T01:13:01.219Z,182
2018-08-24T01:13:13.664Z,182
2018-08-24T01:13:26.086Z,182
2018-08-24T01:13:38.489Z,182
2018-08-24T01:13:50.895Z,182
2018-08-24T01:14:03.481Z,182
2018-08-24T01:14:15.884Z,182
2018-08-24T01:14:28.289Z,182
2018-08-24T01:14:40.710Z,182
2018-08-24T01:14:53.127Z,182
2018-08-24T01:15:05.565Z,182
2018-08-24T01:15:17.988Z,182
2018-08-24T01:15:30.434Z,182
2018-08-24T01:15:42.865Z,182
2018-08-24T01:15:55.312Z,182
2018-08-24T01:16:07.721Z,182
2018-08-24T01:16:20.113Z,182
2018-08-24T01:16:32.512Z,182
2018-08-24T01:16:44.917Z,182
2018-08-24T01:16:57.313Z,182
2018-08-24T01:17:09.762Z,182
2018-08-24T01:17:22.213Z,182
2018-08-24T01:17:34.629Z,182
2018-08-24T01:17:47.027Z,182
2018-08-24T01:17:59.421Z,182
2018-08-24T01:18:11.836Z,182
2018-08-24T01:18:24.271Z,182
2018-08-24T01:18:36.818Z,182
2018-08-24T01:18:49.252Z,182
2018-08-24T01:19:01.680Z,182
2018-08-24T01:19:14.116Z,182
2018-08-24T01:19:26.615Z,182
2018-08-24T01:19:39.042Z,182
2018-08-24T01:19:51.498Z,182
2018-08-24T01:20:03.944Z,182
2018-08-24T01:20:16.382Z,182
2018-08-24T01:20:28.824Z,182
2018-08-24T01:20:41.248Z,182
2018-08-24T01:20:53.689Z,182
2018-08-24T01:21:06.122Z,182
2018-08-24T01:21:18.549Z,182
2018-08-24T01:21:30.973Z,182
2018-08-24T01:21:43.406Z,182
2018-08-24T01:21:55.823Z,182
2018-08-24T01:22:08.232Z,182
2018-08-24T01:22:20.647Z,182
2018-08-24T01:22:33.188Z,182
2018-08-24T01:22:45.596Z,182
2018-08-24T01:22:58.001Z,182
2018-08-24T01:23:10.418Z,182
2018-08-24T01:23:22.841Z,182
2018-08-24T01:23:35.253Z,182
2018-08-24T01:23:47.711Z,182
2018-08-24T01:24:00.365Z,182
2018-08-24T01:24:12.760Z,182
2018-08-24T01:24:25.164Z,182
2018-08-24T01:24:37.569Z,182
2018-08-24T01:24:49.991Z,182
2018-08-24T01:25:02.421Z,182
2018-08-24T01:25:14.852Z,182
2018-08-24T01:25:27.264Z,182
2018-08-24T01:25:39.685Z,182
2018-08-24T01:25:52.167Z,182
2018-08-24T01:26:04.588Z,182
2018-08-24T01:26:17.013Z,182
2018-08-24T01:26:29.455Z,182
2018-08-24T01:26:41.974Z,182
2018-08-24T01:26:54.572Z,182
2018-08-24T01:27:06.981Z,182
2018-08-24T01:27:19.427Z,182
2018-08-24T01:27:31.831Z,182
2018-08-24T01:27:44.286Z,182
2018-08-24T01:27:56.694Z,182
2018-08-24T01:28:09.246Z,182
2018-08-24T01:28:21.663Z,182
2018-08-24T01:28:34.093Z,182
2018-08-24T01:28:46.499Z,182
2018-08-24T01:28:58.947Z,182
2018-08-24T01:29:11.378Z,182
2018-08-24T01:29:23.810Z,182
2018-08-24T01:29:36.253Z,182
2018-08-24T01:29:48.682Z,182
2018-08-24T01:30:01.113Z,182
2018-08-24T01:30:13.522Z,182
2018-08-24T01:30:25.935Z,182
2018-08-24T01:30:38.341Z,182
2018-08-24T01:30:50.758Z,182
2018-08-24T01:31:03.151Z,182
2018-08-24T01:31:15.557Z,182
2018-08-24T01:31:27.951Z,182
2018-08-24T01:31:40.357Z,182
2018-08-24T01:31:52.772Z,182
2018-08-24T01:32:05.512Z,182
2018-08-24T01:32:17.909Z,182
2018-08-24T01:32:30.313Z,182
2018-08-24T01:32:42.760Z,182
2018-08-24T01:32:55.149Z,182
2018-08-24T01:33:07.639Z,182
2018-08-24T01:33:20.110Z,182
2018-08-24T01:33:32.515Z,182
2018-08-24T01:33:44.906Z,182
2018-08-24T01:33:57.455Z,182
2018-08-24T01:34:09.880Z,182
2018-08-24T01:34:22.295Z,182
2018-08-24T01:34:34.788Z,182
2018-08-24T01:34:47.190Z,182
2018-08-24T01:34:59.602Z,182
2018-08-24T01:35:12.161Z,182
2018-08-24T01:35:24.581Z,182
2018-08-24T01:35:36.990Z,182
2018-08-24T01:35:49.382Z,182
2018-08-24T01:36:01.777Z,182
2018-08-24T01:36:14.189Z,182
2018-08-24T01:36:26.603Z,182
2018-08-24T01:36:39.036Z,182
2018-08-24T01:36:51.447Z,182
2018-08-24T01:37:03.848Z,182
2018-08-24T01:37:16.257Z,182
2018-08-24T01:37:28.660Z,182
2018-08-24T01:37:41.064Z,182
2018-08-24T01:37:53.458Z,182
2018-08-24T01:38:05.858Z,182
2018-08-24T01:38:18.284Z,182
2018-08-24T01:38:30.681Z,182
2018-08-24T01:38:43.107Z,182
2018-08-24T01:38:55.542Z,182
2018-08-24T01:39:07.944Z,182
2018-08-24T01:39:20.347Z,182
2018-08-24T01:39:32.744Z,182
2018-08-24T01:39:45.185Z,182
2018-08-24T01:39:57.591Z,182
2018-08-24T01:40:10.096Z,182
2018-08-24T01:40:22.615Z,182
2018-08-24T01:40:35.028Z,182
2018-08-24T01:40:47.423Z,182
2018-08-24T01:40:59.816Z,182
2018-08-24T01:41:12.216Z,182
2018-08-24T01:41:24.635Z,182
2018-08-24T01:41:37.060Z,182
2018-08-24T01:41:49.458Z,182
2018-08-24T01:42:02.004Z,182
2018-08-24T01:42:14.413Z,182
2018-08-24T01:42:26.805Z,182
2018-08-24T01:42:39.217Z,182
2018-08-24T01:42:51.621Z,182
2018-08-24T01:43:04.020Z,182
2018-08-24T01:43:16.412Z,182
2018-08-24T01:43:29.016Z,182
2018-08-24T01:43:41.412Z,182
2018-08-24T01:43:53.843Z,182
2018-08-24T01:44:06.243Z,182
2018-08-24T01:44:18.848Z,182
2018-08-24T01:44:31.258Z,182
2018-08-24T01:44:43.680Z,182
2018-08-24T01:44:56.113Z,182
2018-08-24T01:45:08.518Z,182
2018-08-24T01:45:20.965Z,182
2018-08-24T01:45:33.371Z,182
2018-08-24T01:45:45.804Z,182
2018-08-24T01:45:58.199Z,182
2018-08-24T01:46:10.885Z,182
2018-08-24T01:46:23.442Z,182
2018-08-24T01:46:35.845Z,182
2018-08-24T01:46:48.236Z,182
2018-08-24T01:47:00.624Z,182
2018-08-24T01:47:13.123Z,182
2018-08-24T01:47:25.523Z,182
2018-08-24T01:47:37.943Z,182
2018-08-24T01:47:50.356Z,182
2018-08-24T01:48:02.762Z,182
2018-08-24T01:48:15.191Z,182
2018-08-24T01:48:27.595Z,182
2018-08-24T01:48:40.034Z,182
2018-08-24T01:48:52.497Z,182
2018-08-24T01:49:05.022Z,182
2018-08-24T01:49:17.432Z,182
2018-08-24T01:49:29.860Z,182
2018-08-24T01:49:42.278Z,182
2018-08-24T01:49:54.705Z,182
2018-08-24T01:50:07.157Z,182
2018-08-24T01:50:19.569Z,182
2018-08-24T01:50:31.993Z,182
2018-08-24T01:50:44.387Z,182
2018-08-24T01:50:56.827Z,182
2018-08-24T01:51:09.232Z,182
2018-08-24T01:51:21.647Z,182
2018-08-24T01:51:34.063Z,182
2018-08-24T01:51:46.482Z,182
2018-08-24T01:51:58.923Z,182
2018-08-24T01:52:11.698Z,182
2018-08-24T01:52:24.115Z,182
2018-08-24T01:52:36.517Z,182
2018-08-24T01:52:48.908Z,182
2018-08-24T01:53:01.309Z,182
2018-08-24T01:53:13.703Z,182
2018-08-24T01:53:26.114Z,182
2018-08-24T01:53:38.569Z,182
2018-08-24T01:53:50.991Z,182
2018-08-24T01:54:03.398Z,182
2018-08-24T01:54:15.817Z,182
2018-08-24T01:54:28.236Z,182
2018-08-24T01:54:40.631Z,182
2018-08-24T01:54:53.029Z,182
2018-08-24T01:55:05.432Z,182
2018-08-24T01:55:17.821Z,182
2018-08-24T01:55:30.234Z,182
2018-08-24T01:55:42.659Z,182
2018-08-24T01:55:55.056Z,182
2018-08-24T01:56:07.437Z,182
2018-08-24T01:56:19.850Z,182
2018-08-24T01:56:32.272Z,182
2018-08-24T01:56:44.679Z,182
2018-08-24T01:56:57.090Z,182
2018-08-24T01:57:09.492Z,182
2018-08-24T01:57:21.979Z,182
2018-08-24T01:57:34.393Z,182
2018-08-24T01:57:46.814Z,182
2018-08-24T01:57:59.234Z,182
2018-08-24T01:58:11.653Z,182
2018-08-24T01:58:24.052Z,182
2018-08-24T01:58:36.479Z,182
2018-08-24T01:58:48.891Z,182
2018-08-24T01:59:01.695Z,182
2018-08-24T01:59:15.450Z,182
2018-08-24T01:59:27.874Z,182
2018-08-24T01:59:40.294Z,182
2018-08-24T01:59:52.705Z,182
2018-08-24T02:00:05.117Z,182
2018-08-24T02:00:17.561Z,177
2018-08-24T02:00:29.985Z,177
2018-08-24T02:00:42.444Z,177
2018-08-24T02:00:54.880Z,177
2018-08-24T02:01:07.338Z,177
2018-08-24T02:01:19.821Z,177
2018-08-24T02:01:32.285Z,177
2018-08-24T02:01:44.702Z,177
2018-08-24T02:01:57.137Z,177
2018-08-24T02:02:09.568Z,177
2018-08-24T02:02:22.052Z,177
2018-08-24T02:02:34.488Z,177
2018-08-24T02:02:47.017Z,177
2018-08-24T02:02:59.452Z,177
2018-08-24T02:03:11.850Z,177
2018-08-24T02:03:24.274Z,177
2018-08-24T02:03:36.693Z,177
2018-08-24T02:03:49.176Z,177
2018-08-24T02:04:01.583Z,177
2018-08-24T02:04:13.995Z,177
2018-08-24T02:04:26.537Z,177
2018-08-24T02:04:38.976Z,177
2018-08-24T02:04:51.381Z,177
2018-08-24T02:05:03.812Z,177
2018-08-24T02:05:16.222Z,177
2018-08-24T02:05:28.758Z,177
2018-08-24T02:05:41.186Z,177
2018-08-24T02:05:53.640Z,177
2018-08-24T02:06:06.092Z,177
2018-08-24T02:06:18.522Z,177
2018-08-24T02:06:30.928Z,177
2018-08-24T02:06:43.374Z,177
2018-08-24T02:06:55.802Z,177
2018-08-24T02:07:08.229Z,177
2018-08-24T02:07:20.629Z,177
2018-08-24T02:07:33.192Z,176
2018-08-24T02:07:45.594Z,176
2018-08-24T02:07:57.984Z,176
2018-08-24T02:08:10.607Z,175
2018-08-24T02:08:22.997Z,175
2018-08-24T02:08:35.408Z,175
2018-08-24T02:08:47.858Z,175
2018-08-24T02:09:00.278Z,175
2018-08-24T02:09:12.693Z,175
2018-08-24T02:09:25.146Z,175
2018-08-24T02:09:37.554Z,175
2018-08-24T02:09:49.961Z,175
2018-08-24T02:10:02.373Z,175
2018-08-24T02:10:14.928Z,175
2018-08-24T02:10:27.507Z,175
2018-08-24T02:10:39.930Z,175
2018-08-24T02:10:52.328Z,175
2018-08-24T02:11:04.724Z,175
2018-08-24T02:11:17.141Z,175
2018-08-24T02:11:29.595Z,175
2018-08-24T02:11:42.018Z,175
2018-08-24T02:11:54.427Z,175
2018-08-24T02:12:06.842Z,175
2018-08-24T02:12:19.303Z,175
2018-08-24T02:12:31.708Z,175
2018-08-24T02:12:44.112Z,175
2018-08-24T02:12:56.520Z,175
2018-08-24T02:13:08.937Z,175
2018-08-24T02:13:21.337Z,175
2018-08-24T02:13:33.732Z,175
2018-08-24T02:13:46.191Z,175
2018-08-24T02:13:58.602Z,175
2018-08-24T02:14:11.008Z,175
2018-08-24T02:14:23.833Z,175
2018-08-24T02:14:37.565Z,175
2018-08-24T02:14:50.028Z,175
2018-08-24T02:15:02.618Z,175
2018-08-24T02:15:15.085Z,175
2018-08-24T02:15:27.507Z,175
2018-08-24T02:15:39.924Z,175
2018-08-24T02:15:52.358Z,175
2018-08-24T02:16:04.792Z,175
2018-08-24T02:16:17.207Z,175
2018-08-24T02:16:29.626Z,175
2018-08-24T02:16:42.050Z,175
2018-08-24T02:16:54.597Z,175
2018-08-24T02:17:06.998Z,175
2018-08-24T02:17:19.419Z,175
2018-08-24T02:17:31.836Z,175
2018-08-24T02:17:44.308Z,175
2018-08-24T02:17:56.717Z,175
2018-08-24T02:18:09.162Z,175
2018-08-24T02:18:21.552Z,175
2018-08-24T02:18:34.097Z,175
2018-08-24T02:18:46.503Z,175
2018-08-24T02:18:58.995Z,175
2018-08-24T02:19:11.442Z,175
2018-08-24T02:19:23.873Z,175
2018-08-24T02:19:36.288Z,175
2018-08-24T02:19:48.711Z,175
2018-08-24T02:20:01.106Z,175
2018-08-24T02:20:13.508Z,175
2018-08-24T02:20:25.902Z,175
2018-08-24T02:20:38.318Z,175
2018-08-24T02:20:50.737Z,175
2018-08-24T02:21:03.156Z,175
2018-08-24T02:21:15.563Z,175
2018-08-24T02:21:27.988Z,175
2018-08-24T02:21:40.404Z,175
2018-08-24T02:21:52.847Z,175
2018-08-24T02:22:05.259Z,175
2018-08-24T02:22:17.668Z,175
2018-08-24T02:22:30.183Z,175
2018-08-24T02:22:42.707Z,175
2018-08-24T02:22:55.122Z,175
2018-08-24T02:23:07.513Z,175
2018-08-24T02:23:19.941Z,175
2018-08-24T02:23:32.355Z,175
2018-08-24T02:23:44.754Z,175
2018-08-24T02:23:57.141Z,175
2018-08-24T02:24:09.544Z,175
2018-08-24T02:24:21.959Z,175
2018-08-24T02:24:34.394Z,175
2018-08-24T02:24:46.802Z,175
2018-08-24T02:24:59.192Z,175
2018-08-24T02:25:11.604Z,175
2018-08-24T02:25:24.029Z,175
2018-08-24T02:25:36.454Z,175
2018-08-24T02:25:48.853Z,175
2018-08-24T02:26:01.269Z,175
2018-08-24T02:26:13.677Z,175
2018-08-24T02:26:26.088Z,175
2018-08-24T02:26:38.506Z,175
2018-08-24T02:26:50.936Z,175
2018-08-24T02:27:03.510Z,175
2018-08-24T02:27:15.898Z,175
2018-08-24T02:27:28.302Z,175
2018-08-24T02:27:40.707Z,175
2018-08-24T02:27:53.118Z,175
2018-08-24T02:28:05.603Z,175
2018-08-24T02:28:18.017Z,175
2018-08-24T02:28:30.431Z,175
2018-08-24T02:28:42.820Z,175
2018-08-24T02:28:55.238Z,175
2018-08-24T02:29:07.662Z,175
2018-08-24T02:29:20.088Z,175
2018-08-24T02:29:32.560Z,175
2018-08-24T02:29:44.970Z,175
2018-08-24T02:29:57.368Z,175
2018-08-24T02:30:09.838Z,175
2018-08-24T02:30:22.270Z,175
2018-08-24T02:30:34.707Z,175
2018-08-24T02:30:47.156Z,175
2018-08-24T02:30:59.566Z,175
2018-08-24T02:31:12.701Z,175
2018-08-24T02:31:26.375Z,175
2018-08-24T02:31:38.830Z,175
2018-08-24T02:31:51.259Z,175
2018-08-24T02:32:03.683Z,174
2018-08-24T02:32:16.116Z,174
2018-08-24T02:32:28.551Z,173
2018-08-24T02:32:41.141Z,173
2018-08-24T02:32:53.555Z,173
2018-08-24T02:33:05.950Z,173
2018-08-24T02:33:18.369Z,172
2018-08-24T02:33:30.803Z,172
2018-08-24T02:33:43.227Z,171
2018-08-24T02:33:55.638Z,141
2018-08-24T02:34:08.067Z,142
2018-08-24T02:34:20.489Z,142
2018-08-24T02:34:32.920Z,142
2018-08-24T02:34:45.313Z,142
2018-08-24T02:34:57.762Z,142
2018-08-24T02:35:10.489Z,142
2018-08-24T02:35:22.907Z,142
2018-08-24T02:35:35.396Z,134
2018-08-24T02:35:47.797Z,134
2018-08-24T02:36:00.206Z,134
2018-08-24T02:36:12.672Z,134
2018-08-24T02:36:25.091Z,134
2018-08-24T02:36:37.501Z,134
2018-08-24T02:36:49.926Z,134
2018-08-24T02:37:02.351Z,134
2018-08-24T02:37:14.750Z,134
2018-08-24T02:37:27.180Z,145
2018-08-24T02:37:39.612Z,162
2018-08-24T02:37:52.040Z,162
2018-08-24T02:38:04.441Z,162
2018-08-24T02:38:16.921Z,153
2018-08-24T02:38:29.404Z,150
2018-08-24T02:38:41.853Z,150
2018-08-24T02:38:54.263Z,150
2018-08-24T02:39:06.710Z,161
2018-08-24T02:39:19.124Z,142
2018-08-24T02:39:31.677Z,142
2018-08-24T02:39:44.077Z,143
2018-08-24T02:39:56.476Z,143
2018-08-24T02:40:09.019Z,143
2018-08-24T02:40:21.477Z,143
2018-08-24T02:40:33.885Z,143
2018-08-24T02:40:46.286Z,143
2018-08-24T02:40:58.684Z,142
2018-08-24T02:41:11.089Z,142
2018-08-24T02:41:23.510Z,163
2018-08-24T02:41:35.926Z,140
2018-08-24T02:41:48.344Z,140
2018-08-24T02:42:00.752Z,159
2018-08-24T02:42:13.186Z,146
2018-08-24T02:42:25.931Z,146
2018-08-24T02:42:38.597Z,145
2018-08-24T02:42:51.020Z,141
2018-08-24T02:43:03.430Z,141
2018-08-24T02:43:15.857Z,141
2018-08-24T02:43:28.267Z,141
2018-08-24T02:43:40.694Z,141
2018-08-24T02:43:53.113Z,141
2018-08-24T02:44:05.533Z,141
2018-08-24T02:44:17.975Z,141
2018-08-24T02:44:30.412Z,149
2018-08-24T02:44:42.811Z,142
2018-08-24T02:44:55.398Z,142
2018-08-24T02:45:08.399Z,144
2018-08-24T02:45:21.509Z,144
2018-08-24T02:45:33.934Z,150
2018-08-24T02:45:46.374Z,148
2018-08-24T02:45:58.778Z,148
2018-08-24T02:46:11.266Z,148
2018-08-24T02:46:23.847Z,153
2018-08-24T02:46:36.339Z,153
2018-08-24T02:46:48.866Z,153
2018-08-24T02:47:01.279Z,153
2018-08-24T02:47:13.800Z,154
2018-08-24T02:47:26.271Z,150
2018-08-24T02:47:38.688Z,150
2018-08-24T02:47:51.102Z,150
2018-08-24T02:48:03.574Z,150
2018-08-24T02:48:16.001Z,150
2018-08-24T02:48:28.410Z,150
2018-08-24T02:48:40.899Z,150
2018-08-24T02:48:53.345Z,150
2018-08-24T02:49:05.865Z,153
2018-08-24T02:49:18.274Z,153
2018-08-24T02:49:30.681Z,151
2018-08-24T02:49:43.091Z,150
2018-08-24T02:49:55.517Z,150
2018-08-24T02:50:07.920Z,154
2018-08-24T02:50:20.333Z,154
2018-08-24T02:50:32.757Z,154
2018-08-24T02:50:45.174Z,154
2018-08-24T02:50:57.610Z,154
2018-08-24T02:51:10.020Z,146
2018-08-24T02:51:22.492Z,148
2018-08-24T02:51:34.919Z,160